Lilly-eva — D5DQ2 — position and weather

sailwx.info

Track history (hours):
 
Tides and Currents Weather Stations Pressure Air Temp Water Temp Dewpoint Dewpoint Depression Visibility Wind Speed Wind Dir Waves Ship Positions

Lilly-eva

Last reported at 2018-Jul-21 03:00 UTC. Time now 2018-Jul-23 17:30 UTC.
Position N 36°36' E 000°51'.

Length 154 m; draft 8.2 m.

Type: Ship (hazmat cat B). MMSI: 211346070.

Date/timePositionNaut miles runAvg speedWind from/ knotsBaromVisibWave heightAir tempDewpointWater temp
2018-Jul-21 03:00N 36°36' E 000°51'1316.4
2018-Jul-21 02:13N 36°30' E 000°37'1516.7
2018-Jul-21 01:18N 36°22' E 000°20'516.8
2018-Jul-21 01:01N 36°20' E 000°15'817.0
2018-Jul-21 00:31N 36°15' E 000°06'917.0
2018-Jul-21 00:00N 36°10' W 000°02'916.9
2018-Jul-20 23:30N 36°02' W 000°08'15 0.5
2018-Jul-19 19:31N 35°49' W 000°15'0 0.2
2018-Jul-19 19:29N 35°49' W 000°15'1 2.5
2018-Jul-19 18:57N 35°50' W 000°14'2 4.5
2018-Jul-19 18:28N 35°51' W 000°12'1 1.4
2018-Jul-19 17:59N 35°52' W 000°12'1 1.4
2018-Jul-19 17:30N 35°52' W 000°11'1 1.0
2018-Jul-19 16:54N 35°53' W 000°11'0 0.4
2018-Jul-19 16:29N 35°53' W 000°11'10 5.4
2018-Jul-19 14:36N 36°00' W 000°02'0 0.6
2018-Jul-19 14:00N 36°01' W 000°03'0 0.7
2018-Jul-19 13:16N 36°01' W 000°03'0 0.5
2018-Jul-19 13:00N 36°01' W 000°03'0 0.5
2018-Jul-19 12:30N 36°01' W 000°04'0 0.6
2018-Jul-19 12:00N 36°01' W 000°04'0 0.9
2018-Jul-19 11:27N 36°01' W 000°04'1 0.5
2018-Jul-19 09:35N 36°02' W 000°06'1 0.5
2018-Jul-19 06:46N 36°02' W 000°07'0 0.4
2018-Jul-19 06:27N 36°02' W 000°07'0 0.2
2018-Jul-19 05:43N 36°01' W 000°08'0 0.6
2018-Jul-19 05:30N 36°01' W 000°08'0 0.6
2018-Jul-19 05:00N 36°01' W 000°08'0 0.6
2018-Jul-19 04:27N 36°01' W 000°09'0 0.8
2018-Jul-19 04:00N 36°01' W 000°09'0 0.7
2018-Jul-19 03:29N 36°01' W 000°09'4 0.3
2018-Jul-18 14:20N 35°60' W 000°04'14 3.6
2018-Jul-18 10:18N 36°14' W 000°03'1712.2
2018-Jul-18 08:56N 36°30' E 000°01'19713.6
2018-Jul-17 18:27N 39°43' E 000°53'713.2
2018-Jul-17 17:56N 39°50' E 000°55'978314.8
2018-Jul-17 14:49N 54°13' E 012°08'3 6.5
2018-Jul-17 14:20N 54°11' E 012°05'0 0.0
2018-Jul-17 13:53N 54°11' E 012°05'2 4.0
2018-Jul-17 13:27N 54°09' E 012°06'  
2018-Jul-14 17:38N 54°06' E 012°06'0 1.4
2018-Jul-14 17:27N 54°07' E 012°06'3 5.3
2018-Jul-14 16:59N 54°09' E 012°06'2 3.8
2018-Jul-14 16:30N 54°11' E 012°06'0 0.1
2018-Jul-14 15:58N 54°11' E 012°06'0 0.0
2018-Jul-14 15:25N 54°11' E 012°06'0 0.0
2018-Jul-14 14:52N 54°11' E 012°06'0 0.0
2018-Jul-14 14:28N 54°11' E 012°06'0 0.0
2018-Jul-14 13:13N 54°11' E 012°06'0 0.0
2018-Jul-14 12:58N 54°11' E 012°06'1 1.8
2018-Jul-14 12:30N 54°11' E 012°07'1 1.4
2018-Jul-14 12:00N 54°12' E 012°08'2 0.9
2018-Jul-14 09:51N 54°14' E 012°10'410.2
2018-Jul-14 09:28N 54°11' E 012°05'0 0.0
2018-Jul-14 08:52N 54°11' E 012°05'0 0.0
2018-Jul-12 19:56N 54°11' E 012°05'3 4.3
2018-Jul-12 19:10N 54°13' E 012°10'110967.7
2018-Jul-12 02:47N 37°39' E 000°21'413.7
2018-Jul-12 02:30N 37°35' E 000°20'713.7
2018-Jul-12 01:58N 37°28' E 000°18'613.8
2018-Jul-12 01:30N 37°22' E 000°16'713.9
2018-Jul-12 01:00N 37°15' E 000°14'714.1
2018-Jul-12 00:30N 37°08' E 000°12'714.1
2018-Jul-12 00:00N 37°02' E 000°10'714.1
2018-Jul-11 23:30N 36°55' E 000°08'714.1
2018-Jul-11 23:00N 36°48' E 000°06'714.2
2018-Jul-11 22:30N 36°41' E 000°05'1414.5
2018-Jul-11 21:34N 36°28' E 000°01'114.4
2018-Jul-11 21:30N 36°27' E 000°00'1414.0
2018-Jul-11 20:30N 36°13' W 000°03'713.2
2018-Jul-11 20:00N 36°07' W 000°06'612.8
2018-Jul-11 19:30N 36°01' W 000°08'612.9
2018-Jul-11 19:01N 35°55' W 000°11'611.6
2018-Jul-11 18:30N 35°49' W 000°14'1 0.6
2018-Jul-11 16:44N 35°49' W 000°15'  
Track history (hours):
 
Tides and Currents Weather Stations Pressure Air Temp Water Temp Dewpoint Dewpoint Depression Visibility Wind Speed Wind Dir Waves Ship Positions

Lilly-eva

Last reported at 2018-Jul-21 03:00 UTC. Time now 2018-Jul-23 17:30 UTC.
Position N 36°36' E 000°51'.

Length 154 m; draft 8.2 m.

Type: Ship (hazmat cat B). MMSI: 211346070.

Date/timePositionNaut miles runAvg speedWind from/ knotsBaromVisibWave heightAir tempDewpointWater temp
2018-Jul-21 03:00N 36°36' E 000°51'1316.4
2018-Jul-21 02:13N 36°30' E 000°37'1516.7
2018-Jul-21 01:18N 36°22' E 000°20'516.8
2018-Jul-21 01:01N 36°20' E 000°15'817.0
2018-Jul-21 00:31N 36°15' E 000°06'917.0
2018-Jul-21 00:00N 36°10' W 000°02'916.9
2018-Jul-20 23:30N 36°02' W 000°08'15 0.5
2018-Jul-19 19:31N 35°49' W 000°15'0 0.2
2018-Jul-19 19:29N 35°49' W 000°15'1 2.5
2018-Jul-19 18:57N 35°50' W 000°14'2 4.5
2018-Jul-19 18:28N 35°51' W 000°12'1 1.4
2018-Jul-19 17:59N 35°52' W 000°12'1 1.4
2018-Jul-19 17:30N 35°52' W 000°11'1 1.0
2018-Jul-19 16:54N 35°53' W 000°11'0 0.4
2018-Jul-19 16:29N 35°53' W 000°11'10 5.4
2018-Jul-19 14:36N 36°00' W 000°02'0 0.6
2018-Jul-19 14:00N 36°01' W 000°03'0 0.7
2018-Jul-19 13:16N 36°01' W 000°03'0 0.5
2018-Jul-19 13:00N 36°01' W 000°03'0 0.5
2018-Jul-19 12:30N 36°01' W 000°04'0 0.6
2018-Jul-19 12:00N 36°01' W 000°04'0 0.9
2018-Jul-19 11:27N 36°01' W 000°04'1 0.5
2018-Jul-19 09:35N 36°02' W 000°06'1 0.5
2018-Jul-19 06:46N 36°02' W 000°07'0 0.4
2018-Jul-19 06:27N 36°02' W 000°07'0 0.2
2018-Jul-19 05:43N 36°01' W 000°08'0 0.6
2018-Jul-19 05:30N 36°01' W 000°08'0 0.6
2018-Jul-19 05:00N 36°01' W 000°08'0 0.6
2018-Jul-19 04:27N 36°01' W 000°09'0 0.8
2018-Jul-19 04:00N 36°01' W 000°09'0 0.7
2018-Jul-19 03:29N 36°01' W 000°09'4 0.3
2018-Jul-18 14:20N 35°60' W 000°04'14 3.6
2018-Jul-18 10:18N 36°14' W 000°03'1712.2
2018-Jul-18 08:56N 36°30' E 000°01'19713.6
2018-Jul-17 18:27N 39°43' E 000°53'713.2
2018-Jul-17 17:56N 39°50' E 000°55'978314.8
2018-Jul-17 14:49N 54°13' E 012°08'3 6.5
2018-Jul-17 14:20N 54°11' E 012°05'0 0.0
2018-Jul-17 13:53N 54°11' E 012°05'2 4.0
2018-Jul-17 13:27N 54°09' E 012°06'  
2018-Jul-14 17:38N 54°06' E 012°06'0 1.4
2018-Jul-14 17:27N 54°07' E 012°06'3 5.3
2018-Jul-14 16:59N 54°09' E 012°06'2 3.8
2018-Jul-14 16:30N 54°11' E 012°06'0 0.1
2018-Jul-14 15:58N 54°11' E 012°06'0 0.0
2018-Jul-14 15:25N 54°11' E 012°06'0 0.0
2018-Jul-14 14:52N 54°11' E 012°06'0 0.0
2018-Jul-14 14:28N 54°11' E 012°06'0 0.0
2018-Jul-14 13:13N 54°11' E 012°06'0 0.0
2018-Jul-14 12:58N 54°11' E 012°06'1 1.8
2018-Jul-14 12:30N 54°11' E 012°07'1 1.4
2018-Jul-14 12:00N 54°12' E 012°08'2 0.9
2018-Jul-14 09:51N 54°14' E 012°10'410.2
2018-Jul-14 09:28N 54°11' E 012°05'0 0.0
2018-Jul-14 08:52N 54°11' E 012°05'0 0.0
2018-Jul-12 19:56N 54°11' E 012°05'3 4.3
2018-Jul-12 19:10N 54°13' E 012°10'110967.7
2018-Jul-12 02:47N 37°39' E 000°21'413.7
2018-Jul-12 02:30N 37°35' E 000°20'713.7
2018-Jul-12 01:58N 37°28' E 000°18'613.8
2018-Jul-12 01:30N 37°22' E 000°16'713.9
2018-Jul-12 01:00N 37°15' E 000°14'714.1
2018-Jul-12 00:30N 37°08' E 000°12'714.1
2018-Jul-12 00:00N 37°02' E 000°10'714.1
2018-Jul-11 23:30N 36°55' E 000°08'714.1
2018-Jul-11 23:00N 36°48' E 000°06'714.2
2018-Jul-11 22:30N 36°41' E 000°05'1414.5
2018-Jul-11 21:34N 36°28' E 000°01'114.4
2018-Jul-11 21:30N 36°27' E 000°00'1414.0
2018-Jul-11 20:30N 36°13' W 000°03'713.2
2018-Jul-11 20:00N 36°07' W 000°06'612.8
2018-Jul-11 19:30N 36°01' W 000°08'612.9
2018-Jul-11 19:01N 35°55' W 000°11'611.6
2018-Jul-11 18:30N 35°49' W 000°14'1 0.6
2018-Jul-11 16:44N 35°49' W 000°15'  

Dump ship's entire track history